Time;durP1;ratioP1;P1;durP2;ratioP2;P2;SDS_P1;SDS_P2;PMS_P1;PMS_P2;Temp;Humidity;BMP_temperature;BMP_pressure;BME280_temperature;BME280_humidity;BME280_pressure;Samples;Min_cycle;Max_cycle;Signal;HPM_P1;HPM_P2
2023/04/12 00:01:39;;;;;;;;;;;7.30;99.90;;;;;;5092138;28;19928;-69
2023/04/12 00:04:04;;;;;;;;;;;7.20;99.90;;;;;;5074060;28;20066;-70
2023/04/12 00:06:33;;;;;;;;;;;7.20;99.90;;;;;;5073499;28;19991;-69
2023/04/12 00:09:00;;;;;;;;;;;7.30;99.90;;;;;;5056625;28;19971;-69
2023/04/12 00:11:27;;;;;;;;;;;7.30;99.90;;;;;;5073284;28;19931;-69
2023/04/12 00:13:52;;;;;;;;;;;7.30;99.90;;;;;;5057279;28;20019;-68
2023/04/12 00:16:18;;;;;;;;;;;7.30;99.90;;;;;;5093462;28;19986;-69
2023/04/12 00:18:44;;;;;;;;;;;7.30;99.90;;;;;;5077424;28;20015;-69
2023/04/12 00:21:10;;;;;;;;;;;7.30;99.90;;;;;;5060502;28;19930;-69
2023/04/12 00:23:36;;;;;;;;;;;7.30;99.90;;;;;;5077169;28;20316;-69
2023/04/12 00:26:03;;;;;;;;;;;7.30;99.90;;;;;;5060628;28;20370;-70
2023/04/12 00:28:28;;;;;;;;;;;7.30;99.90;;;;;;5060325;28;20355;-69
2023/04/12 00:30:54;;;;;;;;;;;7.30;99.90;;;;;;5077164;28;19924;-69
2023/04/12 00:33:19;;;;;;;;;;;7.30;99.90;;;;;;5076530;28;19978;-69
2023/04/12 00:35:45;;;;;;;;;;;7.30;99.90;;;;;;5060715;28;20456;-69
2023/04/12 00:38:11;;;;;;;;;;;7.30;99.90;;;;;;5077459;28;19981;-69
2023/04/12 00:40:40;;;;;;;;;;;7.30;99.90;;;;;;5076493;28;19924;-69
2023/04/12 00:43:06;;;;;;;;;;;7.40;99.90;;;;;;5076931;28;19975;-69
2023/04/12 00:45:31;;;;;;;;;;;7.40;99.90;;;;;;5076433;28;19963;-70
2023/04/12 00:47:57;;;;;;;;;;;7.40;99.90;;;;;;5077058;28;19967;-70
2023/04/12 00:50:23;;;;;;;;;;;7.40;99.90;;;;;;5076447;28;19924;-70
2023/04/12 00:52:49;;;;;;;;;;;7.40;99.90;;;;;;5060136;28;20304;-69
2023/04/12 00:55:14;;;;;;;;;;;7.40;99.90;;;;;;5060464;28;19924;-70
2023/04/12 00:57:40;;;;;;;;;;;7.40;99.90;;;;;;5076569;28;20425;-69
2023/04/12 01:00:11;;;;;;;;;;;7.40;99.90;;;;;;5076623;28;19924;-69
2023/04/12 01:02:38;;;;;;;;;;;7.50;99.90;;;;;;5076497;28;19920;-69
2023/04/12 01:05:04;;;;;;;;;;;7.50;99.90;;;;;;5043447;28;19932;-69
2023/04/12 01:07:33;;;;;;;;;;;7.50;99.90;;;;;;5076409;28;20293;-69
2023/04/12 01:10:01;;;;;;;;;;;7.50;99.90;;;;;;5094582;28;19928;-69
2023/04/12 01:12:35;;;;;;;;;;;7.50;99.90;;;;;;5076115;28;19930;-70
2023/04/12 01:15:14;;;;;;;;;;;7.50;99.90;;;;;;5076776;28;20028;-69
2023/04/12 01:17:44;;;;;;;;;;;7.50;99.90;;;;;;5076132;28;19955;-69
2023/04/12 01:20:15;;;;;;;;;;;7.50;99.90;;;;;;5059883;28;19931;-69
2023/04/12 01:22:41;;;;;;;;;;;7.60;99.90;;;;;;5076005;28;19930;-69
2023/04/12 01:25:09;;;;;;;;;;;7.60;99.90;;;;;;5075972;28;20347;-69
2023/04/12 01:27:43;;;;;;;;;;;7.50;99.90;;;;;;5058801;28;19935;-70
2023/04/12 01:30:11;;;;;;;;;;;7.50;99.90;;;;;;5076218;28;19969;-69
2023/04/12 01:32:38;;;;;;;;;;;7.50;99.90;;;;;;5093433;28;19978;-70
2023/04/12 01:35:06;;;;;;;;;;;7.60;99.90;;;;;;5075925;28;20368;-70
2023/04/12 01:37:31;;;;;;;;;;;7.60;99.90;;;;;;5058772;28;19971;-70
2023/04/12 01:39:57;;;;;;;;;;;7.70;99.90;;;;;;5076116;28;20364;-69
2023/04/12 01:42:23;;;;;;;;;;;7.70;99.90;;;;;;5058875;28;19924;-71
2023/04/12 01:44:49;;;;;;;;;;;7.70;99.90;;;;;;5075814;28;20024;-70
2023/04/12 01:47:14;;;;;;;;;;;7.70;99.90;;;;;;5059248;28;20389;-69
2023/04/12 01:49:59;;;;;;;;;;;7.70;99.90;;;;;;5075719;28;20373;-68
2023/04/12 01:52:27;;;;;;;;;;;7.70;99.90;;;;;;5075554;28;19975;-70
2023/04/12 01:54:55;;;;;;;;;;;7.70;99.90;;;;;;5059080;28;20010;-69
2023/04/12 01:57:21;;;;;;;;;;;7.80;99.90;;;;;;5075716;28;19924;-69
2023/04/12 01:59:47;;;;;;;;;;;7.80;99.90;;;;;;5093089;28;19931;-69
2023/04/12 02:02:13;;;;;;;;;;;7.80;99.90;;;;;;5059409;28;19924;-69
2023/04/12 02:04:40;;;;;;;;;;;7.90;99.90;;;;;;5092724;28;19939;-69
2023/04/12 02:07:06;;;;;;;;;;;7.90;99.90;;;;;;5075691;28;20018;-70
2023/04/12 02:09:38;;;;;;;;;;;8.00;99.90;;;;;;5074893;28;20393;-70
2023/04/12 02:12:04;;;;;;;;;;;8.00;99.90;;;;;;5075523;28;20034;-69
2023/04/12 02:14:30;;;;;;;;;;;8.00;99.90;;;;;;5092911;28;19924;-70
2023/04/12 02:16:57;;;;;;;;;;;8.10;99.90;;;;;;5058330;28;19930;-69
2023/04/12 02:19:23;;;;;;;;;;;8.10;99.90;;;;;;5058923;28;20078;-70
2023/04/12 02:21:49;;;;;;;;;;;8.20;99.90;;;;;;5074725;28;20005;-70
2023/04/12 02:24:14;;;;;;;;;;;8.20;99.90;;;;;;5074941;28;20373;-70
2023/04/12 02:26:40;;;;;;;;;;;8.20;99.90;;;;;;5057785;28;19924;-70
2023/04/12 02:29:07;;;;;;;;;;;8.20;99.90;;;;;;5093110;28;19924;-69
2023/04/12 02:31:34;;;;;;;;;;;8.20;99.90;;;;;;5074912;28;20003;-69
2023/04/12 02:34:00;;;;;;;;;;;8.20;99.90;;;;;;5093388;28;19977;-70
2023/04/12 02:36:25;;;;;;;;;;;8.30;99.90;;;;;;5074903;28;19932;-70
2023/04/12 02:44:02;;;;;;;;;;;8.20;99.90;;;;;;5210627;23;19934;-62
2023/04/12 02:46:28;;;;;;;;;;;8.20;99.90;;;;;;4990859;28;20013;-70
2023/04/12 02:48:53;;;;;;;;;;;8.30;99.90;;;;;;4992259;28;20016;-70
2023/04/12 02:51:19;;;;;;;;;;;8.20;99.90;;;;;;4992084;28;19934;-70
2023/04/12 02:53:44;;;;;;;;;;;8.30;99.90;;;;;;4993222;28;19951;-70
2023/04/12 02:56:10;;;;;;;;;;;8.20;99.90;;;;;;4991787;28;19959;-70
2023/04/12 02:58:36;;;;;;;;;;;8.20;99.90;;;;;;4959777;28;19925;-69
2023/04/12 03:01:06;;;;;;;;;;;8.30;99.90;;;;;;4975970;28;20033;-70
2023/04/12 03:03:32;;;;;;;;;;;8.20;99.90;;;;;;4991653;28;20221;-70
2023/04/12 03:05:58;;;;;;;;;;;8.20;99.90;;;;;;4975635;28;19929;-70
2023/04/12 03:08:24;;;;;;;;;;;8.20;99.90;;;;;;4959458;28;20017;-69
2023/04/12 03:10:49;;;;;;;;;;;8.20;99.90;;;;;;4975931;28;20019;-69
2023/04/12 03:13:15;;;;;;;;;;;8.20;99.90;;;;;;4991317;28;19929;-70
2023/04/12 03:15:42;;;;;;;;;;;8.10;99.90;;;;;;4991995;28;19926;-69
2023/04/12 03:18:08;;;;;;;;;;;8.20;99.90;;;;;;4991723;28;20021;-69
2023/04/12 03:20:33;;;;;;;;;;;8.20;99.90;;;;;;4991444;28;20009;-69
2023/04/12 03:23:00;;;;;;;;;;;8.20;99.90;;;;;;4991425;28;20020;-69
2023/04/12 03:25:26;;;;;;;;;;;8.20;99.90;;;;;;4959066;28;19926;-69
2023/04/12 03:27:51;;;;;;;;;;;8.20;99.90;;;;;;4975390;28;19926;-70
2023/04/12 03:30:17;;;;;;;;;;;8.20;99.90;;;;;;4975154;28;19969;-69
2023/04/12 03:32:43;;;;;;;;;;;8.20;99.90;;;;;;4992664;28;20012;-69
2023/04/12 03:35:09;;;;;;;;;;;8.20;99.90;;;;;;4975494;28;19988;-71
2023/04/12 03:37:34;;;;;;;;;;;8.20;99.90;;;;;;4991229;28;20020;-70
2023/04/12 03:40:00;;;;;;;;;;;8.20;99.90;;;;;;4959358;28;20410;-69
2023/04/12 03:42:29;;;;;;;;;;;8.20;99.90;;;;;;4974778;28;19932;-70
2023/04/12 03:44:55;;;;;;;;;;;8.30;99.90;;;;;;4991349;28;19926;-70
2023/04/12 03:47:21;;;;;;;;;;;8.20;99.90;;;;;;4991006;28;19925;-70
2023/04/12 03:49:46;;;;;;;;;;;8.30;99.90;;;;;;4991267;28;19925;-71
2023/04/12 03:52:12;;;;;;;;;;;8.30;99.90;;;;;;4978582;28;19926;-71
2023/04/12 03:54:38;;;;;;;;;;;8.20;99.90;;;;;;4994772;28;20433;-69
2023/04/12 03:57:03;;;;;;;;;;;8.20;99.90;;;;;;4995293;28;20276;-70
2023/04/12 03:59:29;;;;;;;;;;;8.20;99.90;;;;;;4994957;28;19973;-70
2023/04/12 04:01:56;;;;;;;;;;;8.30;99.90;;;;;;4995440;28;20020;-70
2023/04/12 04:04:22;;;;;;;;;;;8.20;99.90;;;;;;4996126;28;19926;-71
2023/04/12 04:06:48;;;;;;;;;;;8.20;99.90;;;;;;4995211;28;19933;-71
2023/04/12 04:09:14;;;;;;;;;;;8.20;99.90;;;;;;4995423;28;19926;-70
2023/04/12 04:11:40;;;;;;;;;;;8.20;99.90;;;;;;4994587;28;19973;-71
2023/04/12 04:14:06;;;;;;;;;;;8.10;99.90;;;;;;4996527;28;19933;-71
2023/04/12 04:16:31;;;;;;;;;;;8.20;99.90;;;;;;4995967;28;19972;-71
2023/04/12 04:18:57;;;;;;;;;;;8.20;99.90;;;;;;4996396;28;20314;-71
2023/04/12 04:21:23;;;;;;;;;;;8.10;99.90;;;;;;4994636;28;19988;-72
2023/04/12 04:23:50;;;;;;;;;;;8.10;99.90;;;;;;4993787;28;19930;-71
2023/04/12 04:26:16;;;;;;;;;;;8.10;99.90;;;;;;4978884;28;19929;-70
2023/04/12 04:28:43;;;;;;;;;;;8.00;99.90;;;;;;4994435;28;20012;-70
2023/04/12 04:31:10;;;;;;;;;;;8.00;99.90;;;;;;4994685;28;19926;-70
2023/04/12 04:33:36;;;;;;;;;;;8.00;99.90;;;;;;4994082;28;20334;-71
2023/04/12 04:36:05;;;;;;;;;;;8.00;99.90;;;;;;4994768;28;19925;-71
2023/04/12 04:38:33;;;;;;;;;;;8.00;99.90;;;;;;4994376;28;19988;-71
2023/04/12 04:41:02;;;;;;;;;;;7.90;99.90;;;;;;4978188;28;20252;-71
2023/04/12 04:43:32;;;;;;;;;;;7.90;99.90;;;;;;4978052;28;20024;-70
2023/04/12 04:45:59;;;;;;;;;;;8.00;99.90;;;;;;4995194;28;19929;-71
2023/04/12 04:48:25;;;;;;;;;;;7.90;99.90;;;;;;4994390;28;19926;-70
2023/04/12 04:50:51;;;;;;;;;;;7.90;99.90;;;;;;4993638;28;19926;-70
2023/04/12 04:53:18;;;;;;;;;;;7.90;99.90;;;;;;4977773;28;19926;-70
2023/04/12 04:55:43;;;;;;;;;;;7.80;99.90;;;;;;4961118;28;19984;-71
2023/04/12 04:58:09;;;;;;;;;;;7.80;99.90;;;;;;4977823;28;20055;-71
2023/04/12 05:00:35;;;;;;;;;;;7.80;99.90;;;;;;4993788;28;19936;-70
2023/04/12 05:03:01;;;;;;;;;;;7.70;99.90;;;;;;4993067;28;19933;-71
2023/04/12 05:05:27;;;;;;;;;;;7.70;99.90;;;;;;4977546;28;19941;-69
2023/04/12 05:07:54;;;;;;;;;;;7.70;99.90;;;;;;4993580;28;20016;-71
2023/04/12 05:10:19;;;;;;;;;;;7.70;99.90;;;;;;4992625;28;19926;-69
2023/04/12 05:12:45;;;;;;;;;;;7.70;99.90;;;;;;4994282;28;19949;-70
2023/04/12 05:15:11;;;;;;;;;;;7.70;99.90;;;;;;4993664;28;19943;-71
2023/04/12 05:17:36;;;;;;;;;;;7.70;99.90;;;;;;4993574;28;19933;-71
2023/04/12 05:20:05;;;;;;;;;;;7.60;99.90;;;;;;4977374;28;19926;-70
2023/04/12 05:22:31;;;;;;;;;;;7.60;99.90;;;;;;4993601;28;19927;-70
2023/04/12 05:24:57;;;;;;;;;;;7.60;99.90;;;;;;4993168;28;19972;-69
2023/04/12 05:27:23;;;;;;;;;;;7.60;99.90;;;;;;4992989;28;20505;-70
2023/04/12 05:29:48;;;;;;;;;;;7.60;99.90;;;;;;4993311;28;19930;-70
2023/04/12 05:32:14;;;;;;;;;;;7.60;99.90;;;;;;4993309;28;20379;-70
2023/04/12 05:34:41;;;;;;;;;;;7.50;99.90;;;;;;4993959;28;19925;-70
2023/04/12 05:37:06;;;;;;;;;;;7.60;99.90;;;;;;4994645;28;19933;-70
2023/04/12 05:39:32;;;;;;;;;;;7.50;99.90;;;;;;4977346;28;19926;-70
2023/04/12 05:41:58;;;;;;;;;;;7.50;99.90;;;;;;4994084;28;19930;-70
2023/04/12 05:44:23;;;;;;;;;;;7.50;99.90;;;;;;4975995;28;20379;-70
2023/04/12 05:46:49;;;;;;;;;;;7.40;99.90;;;;;;4994076;28;19926;-71
2023/04/12 05:49:15;;;;;;;;;;;7.50;99.90;;;;;;4977144;28;19938;-70
2023/04/12 05:51:40;;;;;;;;;;;7.40;99.90;;;;;;4993684;28;19932;-70
2023/04/12 05:54:06;;;;;;;;;;;7.50;99.90;;;;;;4992840;28;19932;-70
2023/04/12 05:56:32;;;;;;;;;;;7.40;99.90;;;;;;4993034;28;19933;-69
2023/04/12 05:59:00;;;;;;;;;;;7.40;99.90;;;;;;4993622;28;20382;-69
2023/04/12 06:01:31;;;;;;;;;;;7.40;99.90;;;;;;4960534;28;19925;-71
2023/04/12 06:03:57;;;;;;;;;;;7.40;99.90;;;;;;4992077;28;19976;-70
2023/04/12 06:06:23;;;;;;;;;;;7.40;99.90;;;;;;4992556;28;20371;-68
2023/04/12 06:08:49;;;;;;;;;;;7.40;99.90;;;;;;4975929;28;20275;-69
2023/04/12 06:11:15;;;;;;;;;;;7.40;99.90;;;;;;4960426;28;19932;-69
2023/04/12 06:13:40;;;;;;;;;;;7.40;99.90;;;;;;4991622;28;19933;-70
2023/04/12 06:16:06;;;;;;;;;;;7.50;99.90;;;;;;4992051;28;19926;-68
2023/04/12 06:18:32;;;;;;;;;;;7.40;99.90;;;;;;4976489;28;19926;-68
2023/04/12 06:20:57;;;;;;;;;;;7.40;99.90;;;;;;4975592;28;19926;-68
2023/04/12 06:23:23;;;;;;;;;;;7.40;99.90;;;;;;4992287;28;20390;-70
2023/04/12 06:25:49;;;;;;;;;;;7.50;99.90;;;;;;4974966;28;20037;-68
2023/04/12 06:28:15;;;;;;;;;;;7.40;99.90;;;;;;4976319;28;19925;-68
2023/04/12 06:30:41;;;;;;;;;;;7.40;99.90;;;;;;4992447;28;19925;-68
2023/04/12 06:33:07;;;;;;;;;;;7.40;99.90;;;;;;4993107;28;19972;-69
2023/04/12 06:35:32;;;;;;;;;;;7.40;99.90;;;;;;4993137;28;19933;-68
2023/04/12 06:37:58;;;;;;;;;;;7.40;99.90;;;;;;4992142;28;20290;-68
2023/04/12 06:40:23;;;;;;;;;;;7.40;99.90;;;;;;4975977;28;19932;-68
2023/04/12 06:42:49;;;;;;;;;;;7.40;99.90;;;;;;4992488;28;19926;-68
2023/04/12 06:45:15;;;;;;;;;;;7.40;99.90;;;;;;4993376;28;20263;-67
2023/04/12 06:47:40;;;;;;;;;;;7.40;99.90;;;;;;4992197;28;19929;-69
2023/04/12 06:50:06;;;;;;;;;;;7.30;99.90;;;;;;4992926;28;19921;-68
2023/04/12 06:52:32;;;;;;;;;;;7.40;99.90;;;;;;4960066;28;19977;-68
2023/04/12 06:54:58;;;;;;;;;;;7.40;99.90;;;;;;4991673;28;19948;-68
2023/04/12 06:57:23;;;;;;;;;;;7.30;99.90;;;;;;4959846;28;19926;-67
2023/04/12 06:59:49;;;;;;;;;;;7.40;99.90;;;;;;4975274;28;20016;-68
2023/04/12 07:02:15;;;;;;;;;;;7.40;99.90;;;;;;4991687;28;19926;-68
2023/04/12 07:04:40;;;;;;;;;;;7.40;99.90;;;;;;4959557;28;20430;-68
2023/04/12 07:07:06;;;;;;;;;;;7.40;99.90;;;;;;4992531;28;19973;-68
2023/04/12 07:09:31;;;;;;;;;;;7.40;99.90;;;;;;4991468;28;20298;-69
2023/04/12 07:11:57;;;;;;;;;;;7.40;99.90;;;;;;4991432;28;19930;-68
2023/04/12 07:14:23;;;;;;;;;;;7.40;99.90;;;;;;4975382;28;19932;-68
2023/04/12 07:16:49;;;;;;;;;;;7.40;99.90;;;;;;4975175;28;19926;-69
2023/04/12 07:19:15;;;;;;;;;;;7.40;99.90;;;;;;4991392;28;20260;-67
2023/04/12 07:21:41;;;;;;;;;;;7.40;99.90;;;;;;4991213;28;20008;-68
2023/04/12 07:24:06;;;;;;;;;;;7.40;99.90;;;;;;4974799;28;20025;-67
2023/04/12 07:26:32;;;;;;;;;;;7.40;99.90;;;;;;4975162;28;19988;-68
2023/04/12 07:28:57;;;;;;;;;;;7.40;99.90;;;;;;4974727;28;19934;-68
2023/04/12 07:31:23;;;;;;;;;;;7.40;99.90;;;;;;4992399;28;20076;-68
2023/04/12 07:33:49;;;;;;;;;;;7.40;99.90;;;;;;4991321;28;19926;-71
2023/04/12 07:36:15;;;;;;;;;;;7.40;99.90;;;;;;4989606;28;19926;-69
2023/04/12 07:38:41;;;;;;;;;;;7.40;99.90;;;;;;4974433;28;19976;-68
2023/04/12 07:41:06;;;;;;;;;;;7.30;99.90;;;;;;4991544;28;19968;-68
2023/04/12 07:43:32;;;;;;;;;;;7.40;99.90;;;;;;4990847;28;19926;-68
2023/04/12 07:45:58;;;;;;;;;;;7.40;99.90;;;;;;4991524;28;20552;-68
2023/04/12 07:48:23;;;;;;;;;;;7.40;99.90;;;;;;4974629;28;19950;-68
2023/04/12 07:50:50;;;;;;;;;;;7.40;99.90;;;;;;4991364;28;19926;-69
2023/04/12 07:53:22;;;;;;;;;;;7.50;99.90;;;;;;4990979;28;19922;-68
2023/04/12 07:55:48;;;;;;;;;;;7.40;99.90;;;;;;4990998;28;19938;-69
2023/04/12 07:58:15;;;;;;;;;;;7.50;99.90;;;;;;4990519;28;20367;-68
2023/04/12 08:00:40;;;;;;;;;;;7.40;99.90;;;;;;4990965;28;19980;-68
2023/04/12 08:03:06;;;;;;;;;;;7.50;99.90;;;;;;4974821;28;19930;-68
2023/04/12 08:05:31;;;;;;;;;;;7.40;99.90;;;;;;4990737;28;19925;-69
2023/04/12 08:07:57;;;;;;;;;;;7.50;99.90;;;;;;4990686;28;20342;-68
2023/04/12 08:10:22;;;;;;;;;;;7.50;99.90;;;;;;4990629;28;19933;-66
2023/04/12 08:12:48;;;;;;;;;;;7.50;99.90;;;;;;4989790;28;20410;-67
2023/04/12 08:15:14;;;;;;;;;;;7.60;99.90;;;;;;4990015;28;19988;-67
2023/04/12 08:17:42;;;;;;;;;;;7.60;99.90;;;;;;4990377;28;19973;-67
2023/04/12 08:20:08;;;;;;;;;;;7.60;99.90;;;;;;4990221;28;20488;-66
2023/04/12 08:22:34;;;;;;;;;;;7.60;99.90;;;;;;4974558;28;20016;-66
2023/04/12 08:25:00;;;;;;;;;;;7.70;99.90;;;;;;4990358;28;20027;-69
2023/04/12 08:27:26;;;;;;;;;;;7.70;99.90;;;;;;4990495;28;19926;-65
2023/04/12 08:29:51;;;;;;;;;;;7.70;99.90;;;;;;4990811;28;19925;-66
2023/04/12 08:32:17;;;;;;;;;;;7.80;99.90;;;;;;4990448;28;20021;-66
2023/04/12 08:34:43;;;;;;;;;;;7.80;99.90;;;;;;4974869;28;19932;-65
2023/04/12 08:37:08;;;;;;;;;;;7.80;99.90;;;;;;4991854;28;20009;-66
2023/04/12 08:39:34;;;;;;;;;;;7.80;99.90;;;;;;4994779;28;20017;-64
2023/04/12 08:42:00;;;;;;;;;;;7.80;99.90;;;;;;4994273;28;19972;-65
2023/04/12 08:44:32;;;;;;;;;;;7.80;99.90;;;;;;4993252;28;19976;-66
2023/04/12 08:46:58;;;;;;;;;;;7.90;99.90;;;;;;4995213;28;19926;-64
2023/04/12 08:49:23;;;;;;;;;;;7.90;99.90;;;;;;4995004;28;20528;-66
2023/04/12 08:51:50;;;;;;;;;;;7.90;99.90;;;;;;4993781;28;19933;-66
2023/04/12 08:54:16;;;;;;;;;;;7.90;99.90;;;;;;4993683;28;19929;-66
2023/04/12 08:56:42;;;;;;;;;;;7.90;99.90;;;;;;4976754;28;19926;-66
2023/04/12 08:59:09;;;;;;;;;;;7.90;99.90;;;;;;4989600;28;20018;-68
2023/04/12 09:01:35;;;;;;;;;;;7.90;99.90;;;;;;4976350;28;20001;-64
2023/04/12 09:04:04;;;;;;;;;;;8.00;99.90;;;;;;4992810;28;19933;-65
2023/04/12 09:06:30;;;;;;;;;;;8.00;99.90;;;;;;4993220;28;19925;-67
2023/04/12 09:08:56;;;;;;;;;;;8.00;99.90;;;;;;4993866;28;20012;-65
2023/04/12 09:11:25;;;;;;;;;;;8.10;99.90;;;;;;4992400;28;20394;-66
2023/04/12 09:13:52;;;;;;;;;;;8.00;99.90;;;;;;4991472;28;19926;-66
2023/04/12 09:16:32;;;;;;;;;;;8.00;99.90;;;;;;4992261;28;20008;-66
2023/04/12 09:19:01;;;;;;;;;;;8.10;99.90;;;;;;4993443;28;20024;-64
2023/04/12 09:21:27;;;;;;;;;;;8.20;99.90;;;;;;4977322;28;19925;-66
2023/04/12 09:24:22;;;;;;;;;;;8.20;99.90;;;;;;4992269;28;19976;-67
2023/04/12 09:27:04;;;;;;;;;;;8.20;99.90;;;;;;4990018;28;19929;-66
2023/04/12 09:29:31;;;;;;;;;;;8.20;99.90;;;;;;4991906;28;20002;-67
2023/04/12 09:32:04;;;;;;;;;;;8.30;99.90;;;;;;4994444;28;19926;-65
2023/04/12 09:34:30;;;;;;;;;;;8.30;99.90;;;;;;4993139;28;20498;-66
2023/04/12 09:36:56;;;;;;;;;;;8.30;99.90;;;;;;4994297;28;20350;-65
2023/04/12 09:39:40;;;;;;;;;;;8.40;99.90;;;;;;4993778;28;19926;-66
2023/04/12 09:42:06;;;;;;;;;;;8.40;99.90;;;;;;4992613;28;20028;-65
2023/04/12 09:44:33;;;;;;;;;;;8.50;99.90;;;;;;4993790;28;19933;-64
2023/04/12 09:47:00;;;;;;;;;;;8.60;99.90;;;;;;4993524;28;20302;-65
2023/04/12 09:49:39;;;;;;;;;;;8.50;99.90;;;;;;4990732;28;19926;-65
2023/04/12 09:52:12;;;;;;;;;;;8.70;99.90;;;;;;4991634;28;20294;-65
2023/04/12 09:54:41;;;;;;;;;;;8.80;99.90;;;;;;4991416;28;20414;-65
2023/04/12 09:57:07;;;;;;;;;;;9.00;99.90;;;;;;4992489;28;19937;-66
2023/04/12 09:59:40;;;;;;;;;;;9.30;99.90;;;;;;4989806;28;19983;-64
2023/04/12 10:02:12;;;;;;;;;;;9.40;99.90;;;;;;4993847;28;19975;-65
2023/04/12 10:04:39;;;;;;;;;;;9.60;99.90;;;;;;4992358;28;19925;-64
2023/04/12 10:07:05;;;;;;;;;;;9.70;99.90;;;;;;4991625;28;19925;-65
2023/04/12 10:09:31;;;;;;;;;;;9.90;99.90;;;;;;4991023;28;19933;-66
2023/04/12 10:11:58;;;;;;;;;;;10.00;99.90;;;;;;4976058;28;19926;-65
2023/04/12 10:14:26;;;;;;;;;;;9.90;99.90;;;;;;4991504;28;19977;-65
2023/04/12 10:16:55;;;;;;;;;;;10.00;99.90;;;;;;4993443;28;20076;-65
2023/04/12 10:19:21;;;;;;;;;;;10.00;99.90;;;;;;4992598;28;20016;-65
2023/04/12 10:21:47;;;;;;;;;;;10.00;99.90;;;;;;4991473;28;19943;-67
2023/04/12 10:24:12;;;;;;;;;;;10.10;99.90;;;;;;4989645;28;19925;-64
2023/04/12 10:26:40;;;;;;;;;;;10.10;99.90;;;;;;4975850;28;19934;-65
2023/04/12 10:29:21;;;;;;;;;;;10.30;99.90;;;;;;4989441;28;19941;-65
2023/04/12 10:31:47;;;;;;;;;;;10.40;99.90;;;;;;4975648;28;20342;-63
2023/04/12 10:34:12;;;;;;;;;;;10.50;99.90;;;;;;4992997;28;19984;-65
2023/04/12 10:36:54;;;;;;;;;;;10.60;99.90;;;;;;4989238;28;20013;-64
2023/04/12 10:39:36;;;;;;;;;;;10.80;99.90;;;;;;4990284;28;20513;-66
2023/04/12 10:42:18;;;;;;;;;;;11.00;99.90;;;;;;4988510;28;19933;-64
2023/04/12 10:44:44;;;;;;;;;;;11.10;99.90;;;;;;4989056;28;19925;-64
2023/04/12 10:47:10;;;;;;;;;;;11.20;99.90;;;;;;4993131;28;19933;-65
2023/04/12 10:49:37;;;;;;;;;;;11.30;99.90;;;;;;4990090;28;20298;-66
2023/04/12 10:52:10;;;;;;;;;;;11.40;99.90;;;;;;4991755;28;19989;-64
2023/04/12 10:54:35;;;;;;;;;;;11.40;99.90;;;;;;4989083;28;20334;-65
2023/04/12 10:57:02;;;;;;;;;;;11.40;99.90;;;;;;4975093;28;19926;-65
2023/04/12 10:59:47;;;;;;;;;;;11.40;99.90;;;;;;4989520;28;19930;-64
2023/04/12 11:02:13;;;;;;;;;;;11.40;99.90;;;;;;4972381;28;19956;-65
2023/04/12 11:04:58;;;;;;;;;;;11.40;99.90;;;;;;4988048;28;20374;-65
2023/04/12 11:07:37;;;;;;;;;;;11.40;99.90;;;;;;4990252;28;19976;-64
2023/04/12 11:10:03;;;;;;;;;;;11.40;99.90;;;;;;4990061;28;19926;-64
2023/04/12 11:12:28;;;;;;;;;;;11.70;99.90;;;;;;4991197;28;20419;-65
2023/04/12 11:14:58;;;;;;;;;;;11.90;99.90;;;;;;4991778;28;19988;-67
2023/04/12 11:17:24;;;;;;;;;;;12.00;99.90;;;;;;4990946;28;20378;-68
2023/04/12 11:19:50;;;;;;;;;;;12.10;99.90;;;;;;4990011;28;20262;-64
2023/04/12 11:22:16;;;;;;;;;;;12.20;99.90;;;;;;4992474;28;19926;-65
2023/04/12 11:24:43;;;;;;;;;;;12.10;99.90;;;;;;4992306;28;19926;-65
2023/04/12 11:27:09;;;;;;;;;;;12.10;99.90;;;;;;4992614;28;19937;-64
2023/04/12 11:29:35;;;;;;;;;;;12.00;99.90;;;;;;4992276;28;20021;-64
2023/04/12 11:32:04;;;;;;;;;;;12.00;99.90;;;;;;4975274;28;19969;-64
2023/04/12 11:34:33;;;;;;;;;;;12.00;99.90;;;;;;4991926;28;19942;-65
2023/04/12 11:36:59;;;;;;;;;;;12.00;99.90;;;;;;4992585;28;19930;-64
2023/04/12 11:39:26;;;;;;;;;;;11.90;99.90;;;;;;4992482;28;19933;-66
2023/04/12 11:41:51;;;;;;;;;;;12.20;99.90;;;;;;4992458;28;19926;-64
2023/04/12 11:44:18;;;;;;;;;;;12.10;99.90;;;;;;4991847;28;19926;-64
2023/04/12 11:46:45;;;;;;;;;;;12.00;99.90;;;;;;4990622;28;19926;-64
2023/04/12 11:49:15;;;;;;;;;;;12.00;99.90;;;;;;4992348;28;19969;-64
2023/04/12 11:51:40;;;;;;;;;;;12.00;99.90;;;;;;4990957;28;20047;-64
2023/04/12 11:54:06;;;;;;;;;;;12.00;99.90;;;;;;4992279;28;20402;-66
2023/04/12 11:56:31;;;;;;;;;;;12.00;99.90;;;;;;4991657;28;20012;-65
2023/04/12 11:58:57;;;;;;;;;;;11.90;99.90;;;;;;4990914;28;19926;-65
2023/04/12 12:01:23;;;;;;;;;;;11.90;99.90;;;;;;4992257;28;20379;-66
2023/04/12 12:03:49;;;;;;;;;;;12.00;99.90;;;;;;4990605;28;19940;-64
2023/04/12 12:06:15;;;;;;;;;;;12.10;99.90;;;;;;4991988;28;19925;-65
2023/04/12 12:08:40;;;;;;;;;;;12.20;99.90;;;;;;4974629;28;19925;-65
2023/04/12 12:11:06;;;;;;;;;;;12.30;99.90;;;;;;4992086;28;20370;-64
2023/04/12 12:13:51;;;;;;;;;;;12.40;99.90;;;;;;4995487;28;19926;-66
2023/04/12 12:16:18;;;;;;;;;;;12.50;99.90;;;;;;4994561;28;20258;-64
2023/04/12 12:18:47;;;;;;;;;;;12.50;99.90;;;;;;4995497;28;19972;-65
2023/04/12 12:21:13;;;;;;;;;;;12.50;99.90;;;;;;4995717;28;19926;-65
2023/04/12 12:23:41;;;;;;;;;;;12.60;99.90;;;;;;4995039;28;19952;-65
2023/04/12 12:26:07;;;;;;;;;;;12.50;99.90;;;;;;4994054;28;19926;-64
2023/04/12 12:28:36;;;;;;;;;;;12.50;99.90;;;;;;4994653;28;19925;-66
2023/04/12 12:31:05;;;;;;;;;;;12.50;99.90;;;;;;4994703;28;19925;-64
2023/04/12 12:33:37;;;;;;;;;;;12.40;99.90;;;;;;4978276;28;19926;-65
2023/04/12 12:36:03;;;;;;;;;;;12.50;99.90;;;;;;4995415;28;19976;-64
2023/04/12 12:38:35;;;;;;;;;;;12.40;99.90;;;;;;4978205;28;19965;-65
2023/04/12 12:41:13;;;;;;;;;;;12.40;99.90;;;;;;4994099;28;19926;-65
2023/04/12 12:43:43;;;;;;;;;;;12.40;99.90;;;;;;4994756;28;19925;-64
2023/04/12 12:46:09;;;;;;;;;;;12.40;99.90;;;;;;4995309;28;19925;-65
2023/04/12 12:48:38;;;;;;;;;;;12.40;99.90;;;;;;4993970;28;19933;-65
2023/04/12 12:51:03;;;;;;;;;;;12.50;99.90;;;;;;4994110;28;19926;-63
2023/04/12 12:53:29;;;;;;;;;;;12.50;99.90;;;;;;4995100;28;19925;-64
2023/04/12 12:55:55;;;;;;;;;;;12.60;99.90;;;;;;4994552;28;19925;-63
2023/04/12 12:58:20;;;;;;;;;;;12.60;99.90;;;;;;4994859;28;19926;-64
2023/04/12 13:00:46;;;;;;;;;;;12.70;99.90;;;;;;4994595;28;19926;-64
2023/04/12 13:03:12;;;;;;;;;;;12.80;99.90;;;;;;4993916;28;20236;-64
2023/04/12 13:05:37;;;;;;;;;;;12.80;99.90;;;;;;4993606;28;19926;-65
2023/04/12 13:08:03;;;;;;;;;;;12.90;99.90;;;;;;4994289;28;19972;-64
2023/04/12 13:10:28;;;;;;;;;;;13.00;99.90;;;;;;4994772;28;19925;-65
2023/04/12 13:12:54;;;;;;;;;;;13.00;99.90;;;;;;4994497;28;20339;-64
2023/04/12 13:15:20;;;;;;;;;;;13.00;99.90;;;;;;4993753;28;20355;-64
2023/04/12 13:17:45;;;;;;;;;;;13.00;99.90;;;;;;4994226;28;20012;-64
2023/04/12 13:20:11;;;;;;;;;;;13.00;99.90;;;;;;4977224;28;20398;-64
2023/04/12 13:22:36;;;;;;;;;;;12.90;99.90;;;;;;4994245;28;19988;-64
2023/04/12 13:25:03;;;;;;;;;;;12.90;99.90;;;;;;4976735;28;19947;-65
2023/04/12 13:27:28;;;;;;;;;;;12.90;99.90;;;;;;4993622;28;19934;-65
2023/04/12 13:29:54;;;;;;;;;;;12.80;99.90;;;;;;4993156;28;20356;-65
2023/04/12 13:32:19;;;;;;;;;;;12.80;99.90;;;;;;4994584;28;19926;-64
2023/04/12 13:34:45;;;;;;;;;;;12.80;99.90;;;;;;4993109;28;19999;-65
2023/04/12 13:37:11;;;;;;;;;;;12.70;99.90;;;;;;4994454;28;19926;-66
2023/04/12 13:39:38;;;;;;;;;;;12.60;99.90;;;;;;4993101;28;19926;-64
2023/04/12 13:42:05;;;;;;;;;;;12.60;99.90;;;;;;4992923;28;20023;-65
2023/04/12 13:44:31;;;;;;;;;;;12.50;99.90;;;;;;4993801;28;19997;-65
2023/04/12 13:46:56;;;;;;;;;;;12.50;99.90;;;;;;4976743;28;19977;-65
2023/04/12 13:49:22;;;;;;;;;;;12.60;99.90;;;;;;4993890;28;19932;-64
2023/04/12 13:51:47;;;;;;;;;;;12.50;99.90;;;;;;4992546;28;20271;-67
2023/04/12 13:54:14;;;;;;;;;;;12.60;99.90;;;;;;4994039;28;19932;-64
2023/04/12 13:56:40;;;;;;;;;;;12.50;99.90;;;;;;4993988;28;19937;-63
2023/04/12 13:59:05;;;;;;;;;;;12.50;99.90;;;;;;4992274;28;19925;-64
2023/04/12 14:01:31;;;;;;;;;;;12.50;99.90;;;;;;4993567;28;19961;-64
2023/04/12 14:03:57;;;;;;;;;;;12.50;99.90;;;;;;4993491;28;19932;-63
2023/04/12 14:06:22;;;;;;;;;;;12.40;99.90;;;;;;4992684;28;20370;-63
2023/04/12 14:08:49;;;;;;;;;;;12.40;99.90;;;;;;4993741;28;20021;-67
2023/04/12 14:11:15;;;;;;;;;;;12.40;99.90;;;;;;4992489;28;20355;-65
2023/04/12 14:13:41;;;;;;;;;;;12.50;99.90;;;;;;4992494;28;19987;-64
2023/04/12 14:16:07;;;;;;;;;;;12.50;99.90;;;;;;4993422;28;19933;-64
2023/04/12 14:18:32;;;;;;;;;;;12.50;99.90;;;;;;4992312;28;19933;-64
2023/04/12 14:20:58;;;;;;;;;;;12.60;99.90;;;;;;4992101;28;19930;-64
2023/04/12 14:23:24;;;;;;;;;;;12.50;99.90;;;;;;4993781;28;19948;-66
2023/04/12 14:25:50;;;;;;;;;;;12.60;99.90;;;;;;4993522;28;19979;-66
2023/04/12 14:28:16;;;;;;;;;;;12.60;99.90;;;;;;4993263;28;20383;-65
2023/04/12 14:30:42;;;;;;;;;;;12.60;99.90;;;;;;4992440;28;19925;-64